Terminal Aerodrome Forecast
Issued by NWS Mt. Holly, NJ

Home | Current Version | Previous Version | Text Only | Print | Product List | Glossary On
Versions: 1 2 3 4 5 6 7 8 9 10 11 12 13 14 15 16 17 18 19 20 21 22 23 24 25 26 27 28 29 30 31 32 33 34
646
FTAK31 PANC 302345
TAFABE
TAF
PABE 302345Z 0100/0124 09015G22KT P6SM VCSH BKN050 BKN080
     FM010600 07008KT P6SM BKN045 BKN080
     FM012300 08008G12KT P6SM VCSH BKN050 BKN080=

USA.gov is the U.S. government's official web portal to all federal, state and local government web resources and services.